sensor_id;sensor_type;location;lat;lon;timestamp;pressure;altitude;pressure_sealevel;temperature;humidity
6853;BME280;3465;42.144;24.722;2023-06-22T00:00:57;148895.34;;;23.86;91.72
6853;BME280;3465;42.144;24.722;2023-06-22T00:03:23;148886.47;;;23.82;92.90
6853;BME280;3465;42.144;24.722;2023-06-22T00:05:49;148868.72;;;23.75;92.81
6853;BME280;3465;42.144;24.722;2023-06-22T00:08:15;148839.59;;;23.64;93.52
6853;BME280;3465;42.144;24.722;2023-06-22T00:10:42;148806.69;;;23.51;93.56
6853;BME280;3465;42.144;24.722;2023-06-22T00:13:08;148811.75;;;23.53;94.51
6853;BME280;3465;42.144;24.722;2023-06-22T00:15:34;148815.56;;;23.54;94.47
6853;BME280;3465;42.144;24.722;2023-06-22T00:18:00;148816.84;;;23.55;92.35
6853;BME280;3465;42.144;24.722;2023-06-22T00:20:26;148828.22;;;23.59;92.40
6853;BME280;3465;42.144;24.722;2023-06-22T00:22:56;148835.81;;;23.62;92.71
6853;BME280;3465;42.144;24.722;2023-06-22T00:25:21;148835.81;;;23.62;91.90
6853;BME280;3465;42.144;24.722;2023-06-22T00:27:47;148820.63;;;23.56;91.51
6853;BME280;3465;42.144;24.722;2023-06-22T00:30:13;148826.94;;;23.59;92.22
6853;BME280;3465;42.144;24.722;2023-06-22T00:32:39;148813.03;;;23.53;92.86
6853;BME280;3465;42.144;24.722;2023-06-22T00:35:04;148838.38;;;23.63;92.90
6853;BME280;3465;42.144;24.722;2023-06-22T00:37:30;148807.97;;;23.51;93.67
6853;BME280;3465;42.144;24.722;2023-06-22T00:39:56;148792.78;;;23.45;93.47
6853;BME280;3465;42.144;24.722;2023-06-22T00:42:22;148772.56;;;23.37;93.74
6853;BME280;3465;42.144;24.722;2023-06-22T00:44:47;148762.41;;;23.33;94.67
6853;BME280;3465;42.144;24.722;2023-06-22T00:47:14;148729.50;;;23.20;94.78
6853;BME280;3465;42.144;24.722;2023-06-22T00:49:41;148723.13;;;23.18;95.22
6853;BME280;3465;42.144;24.722;2023-06-22T00:52:07;148714.28;;;23.14;96.24
6853;BME280;3465;42.144;24.722;2023-06-22T00:54:42;148721.84;;;23.17;96.98
6853;BME280;3465;42.144;24.722;2023-06-22T00:57:15;148725.66;;;23.19;97.29
6853;BME280;3465;42.144;24.722;2023-06-22T00:59:44;148713.03;;;23.14;97.50
6853;BME280;3465;42.144;24.722;2023-06-22T01:02:10;148709.25;;;23.12;97.55
6853;BME280;3465;42.144;24.722;2023-06-22T01:04:36;148670.00;;;22.97;97.55
6853;BME280;3465;42.144;24.722;2023-06-22T01:10:07;148565.00;;;22.55;100.00
6853;BME280;3465;42.144;24.722;2023-06-22T01:16:07;148492.88;;;22.26;100.00
6853;BME280;3465;42.144;24.722;2023-06-22T01:18:38;148436.00;;;22.04;100.00
6853;BME280;3465;42.144;24.722;2023-06-22T01:21:06;148458.72;;;22.13;100.00
6853;BME280;3465;42.144;24.722;2023-06-22T01:28:57;148466.34;;;22.16;100.00
6853;BME280;3465;42.144;24.722;2023-06-22T01:31:26;148486.59;;;22.24;100.00
6853;BME280;3465;42.144;24.722;2023-06-22T01:34:03;148486.59;;;22.24;100.00
6853;BME280;3465;42.144;24.722;2023-06-22T01:36:31;148463.81;;;22.15;100.00
6853;BME280;3465;42.144;24.722;2023-06-22T01:38:59;148495.41;;;22.27;100.00
6853;BME280;3465;42.144;24.722;2023-06-22T01:41:26;148463.81;;;22.15;100.00
6853;BME280;3465;42.144;24.722;2023-06-22T01:43:55;148472.66;;;22.18;100.00
6853;BME280;3465;42.144;24.722;2023-06-22T01:46:21;148467.59;;;22.16;100.00
6853;BME280;3465;42.144;24.722;2023-06-22T01:48:47;148456.22;;;22.12;100.00
6853;BME280;3465;42.144;24.722;2023-06-22T01:51:13;148478.97;;;22.21;100.00
6853;BME280;3465;42.144;24.722;2023-06-22T01:53:39;148494.16;;;22.27;100.00
6853;BME280;3465;42.144;24.722;2023-06-22T01:56:04;148489.09;;;22.25;100.00
6853;BME280;3465;42.144;24.722;2023-06-22T01:58:30;148441.06;;;22.06;100.00
6853;BME280;3465;42.144;24.722;2023-06-22T02:01:11;148456.22;;;22.12;100.00
6853;BME280;3465;42.144;24.722;2023-06-22T02:03:42;148468.88;;;22.17;100.00
6853;BME280;3465;42.144;24.722;2023-06-22T02:06:24;148451.16;;;22.10;100.00
6853;BME280;3465;42.144;24.722;2023-06-22T02:08:56;148481.53;;;22.22;100.00
6853;BME280;3465;42.144;24.722;2023-06-22T02:11:25;148480.25;;;22.21;100.00
6853;BME280;3465;42.144;24.722;2023-06-22T02:13:53;148478.97;;;22.21;100.00
6853;BME280;3465;42.144;24.722;2023-06-22T02:16:19;148463.81;;;22.15;100.00
6853;BME280;3465;42.144;24.722;2023-06-22T02:18:51;148444.84;;;22.07;100.00
6853;BME280;3465;42.144;24.722;2023-06-22T02:21:17;148438.50;;;22.05;100.00
6853;BME280;3465;42.144;24.722;2023-06-22T02:23:43;148389.25;;;21.85;100.00
6853;BME280;3465;42.144;24.722;2023-06-22T02:26:08;148366.47;;;21.76;100.00
6853;BME280;3465;42.144;24.722;2023-06-22T02:28:34;148349.97;;;21.70;100.00
6853;BME280;3465;42.144;24.722;2023-06-22T02:30:59;148334.81;;;21.64;100.00
6853;BME280;3465;42.144;24.722;2023-06-22T02:33:25;148338.59;;;21.65;100.00
6853;BME280;3465;42.144;24.722;2023-06-22T02:35:50;148317.09;;;21.57;100.00
6853;BME280;3465;42.144;24.722;2023-06-22T02:38:15;148289.31;;;21.46;100.00
6853;BME280;3465;42.144;24.722;2023-06-22T02:40:42;148209.72;;;21.14;100.00
6853;BME280;3465;42.144;24.722;2023-06-22T02:43:08;148264.06;;;21.36;100.00
6853;BME280;3465;42.144;24.722;2023-06-22T02:45:33;148242.59;;;21.27;100.00
6853;BME280;3465;42.144;24.722;2023-06-22T02:47:58;148207.22;;;21.13;100.00
6853;BME280;3465;42.144;24.722;2023-06-22T02:50:24;148202.16;;;21.11;100.00
6853;BME280;3465;42.144;24.722;2023-06-22T02:52:50;148202.16;;;21.11;100.00
6853;BME280;3465;42.144;24.722;2023-06-22T02:55:15;148195.81;;;21.08;100.00
6853;BME280;3465;42.144;24.722;2023-06-22T02:57:41;148211.00;;;21.14;100.00
6853;BME280;3465;42.144;24.722;2023-06-22T03:00:09;148208.44;;;21.13;100.00
6853;BME280;3465;42.144;24.722;2023-06-22T03:02:46;148232.44;;;21.23;100.00
6853;BME280;3465;42.144;24.722;2023-06-22T03:05:16;148217.31;;;21.17;100.00
6853;BME280;3465;42.144;24.722;2023-06-22T03:07:46;148233.72;;;21.23;100.00
6853;BME280;3465;42.144;24.722;2023-06-22T03:10:12;148216.03;;;21.16;100.00
6853;BME280;3465;42.144;24.722;2023-06-22T03:12:39;148232.44;;;21.23;100.00
6853;BME280;3465;42.144;24.722;2023-06-22T03:15:14;148221.09;;;21.18;100.00
6853;BME280;3465;42.144;24.722;2023-06-22T03:17:40;148203.44;;;21.11;100.00
6853;BME280;3465;42.144;24.722;2023-06-22T03:20:07;148207.22;;;21.13;100.00
6853;BME280;3465;42.144;24.722;2023-06-22T03:22:40;148180.66;;;21.02;100.00
6853;BME280;3465;42.144;24.722;2023-06-22T03:25:07;148140.19;;;20.86;100.00
6853;BME280;3465;42.144;24.722;2023-06-22T03:27:36;148117.47;;;20.77;100.00
6853;BME280;3465;42.144;24.722;2023-06-22T03:30:01;148117.47;;;20.77;100.00
6853;BME280;3465;42.144;24.722;2023-06-22T03:32:27;148141.47;;;20.87;100.00
6853;BME280;3465;42.144;24.722;2023-06-22T03:34:53;148156.63;;;20.93;100.00
6853;BME280;3465;42.144;24.722;2023-06-22T03:37:18;148157.91;;;20.93;100.00
6853;BME280;3465;42.144;24.722;2023-06-22T03:39:44;148179.38;;;21.02;100.00
6853;BME280;3465;42.144;24.722;2023-06-22T03:42:09;148169.31;;;20.98;100.00
6853;BME280;3465;42.144;24.722;2023-06-22T03:44:35;148208.44;;;21.13;100.00
6853;BME280;3465;42.144;24.722;2023-06-22T03:47:03;148205.94;;;21.12;100.00
6853;BME280;3465;42.144;24.722;2023-06-22T03:49:29;148228.66;;;21.21;100.00
6853;BME280;3465;42.144;24.722;2023-06-22T03:51:54;148219.81;;;21.18;100.00
6853;BME280;3465;42.144;24.722;2023-06-22T03:54:20;148203.44;;;21.11;100.00
6853;BME280;3465;42.144;24.722;2023-06-22T03:56:45;148171.81;;;20.99;100.00
6853;BME280;3465;42.144;24.722;2023-06-22T03:59:11;148208.44;;;21.13;100.00
6853;BME280;3465;42.144;24.722;2023-06-22T04:01:36;148219.81;;;21.18;100.00
6853;BME280;3465;42.144;24.722;2023-06-22T04:04:02;148233.72;;;21.23;100.00
6853;BME280;3465;42.144;24.722;2023-06-22T04:06:27;148261.53;;;21.35;100.00
6853;BME280;3465;42.144;24.722;2023-06-22T04:08:52;148279.22;;;21.42;100.00
6853;BME280;3465;42.144;24.722;2023-06-22T04:11:18;148312.09;;;21.55;100.00
6853;BME280;3465;42.144;24.722;2023-06-22T04:13:44;148299.44;;;21.50;100.00
6853;BME280;3465;42.144;24.722;2023-06-22T04:16:09;148331.03;;;21.62;100.00
6853;BME280;3465;42.144;24.722;2023-06-22T04:18:35;148355.03;;;21.72;100.00
6853;BME280;3465;42.144;24.722;2023-06-22T04:21:01;148361.34;;;21.74;100.00
6853;BME280;3465;42.144;24.722;2023-06-22T04:23:26;148367.72;;;21.77;100.00
6853;BME280;3465;42.144;24.722;2023-06-22T04:25:52;148347.47;;;21.69;100.00
6853;BME280;3465;42.144;24.722;2023-06-22T04:28:17;148327.25;;;21.61;100.00
6853;BME280;3465;42.144;24.722;2023-06-22T04:30:42;148381.63;;;21.82;100.00
6853;BME280;3465;42.144;24.722;2023-06-22T04:33:14;148390.47;;;21.86;100.00
6853;BME280;3465;42.144;24.722;2023-06-22T04:35:40;148362.63;;;21.75;100.00
6853;BME280;3465;42.144;24.722;2023-06-22T04:38:08;148399.31;;;21.89;100.00
6853;BME280;3465;42.144;24.722;2023-06-22T04:40:34;148429.69;;;22.01;100.00
6853;BME280;3465;42.144;24.722;2023-06-22T04:42:59;148449.91;;;22.09;100.00
6853;BME280;3465;42.144;24.722;2023-06-22T04:45:28;148466.34;;;22.16;100.00
6853;BME280;3465;42.144;24.722;2023-06-22T04:47:53;148458.72;;;22.13;100.00
6853;BME280;3465;42.144;24.722;2023-06-22T04:50:18;148489.09;;;22.25;100.00
6853;BME280;3465;42.144;24.722;2023-06-22T04:52:46;148497.97;;;22.28;100.00
6853;BME280;3465;42.144;24.722;2023-06-22T04:55:12;148506.81;;;22.32;100.00
6853;BME280;3465;42.144;24.722;2023-06-22T04:57:37;148524.50;;;22.39;100.00
6853;BME280;3465;42.144;24.722;2023-06-22T05:00:05;148552.31;;;22.50;100.00
6853;BME280;3465;42.144;24.722;2023-06-22T05:02:40;148551.06;;;22.49;100.00
6853;BME280;3465;42.144;24.722;2023-06-22T05:05:06;148553.59;;;22.50;100.00
6853;BME280;3465;42.144;24.722;2023-06-22T05:07:33;148567.56;;;22.56;100.00
6853;BME280;3465;42.144;24.722;2023-06-22T05:10:00;148609.28;;;22.73;100.00
6853;BME280;3465;42.144;24.722;2023-06-22T05:12:25;148620.66;;;22.77;100.00
6853;BME280;3465;42.144;24.722;2023-06-22T05:14:50;148653.53;;;22.90;100.00
6853;BME280;3465;42.144;24.722;2023-06-22T05:17:16;148678.84;;;23.00;100.00
6853;BME280;3465;42.144;24.722;2023-06-22T05:19:44;148732.00;;;23.21;100.00
6853;BME280;3465;42.144;24.722;2023-06-22T05:22:16;148754.81;;;23.30;100.00
6853;BME280;3465;42.144;24.722;2023-06-22T05:24:42;148782.66;;;23.41;100.00
6853;BME280;3465;42.144;24.722;2023-06-22T05:27:09;148807.97;;;23.51;100.00
6853;BME280;3465;42.144;24.722;2023-06-22T05:29:34;148852.28;;;23.69;100.00
6853;BME280;3465;42.144;24.722;2023-06-22T05:32:00;148856.06;;;23.70;100.00
6853;BME280;3465;42.144;24.722;2023-06-22T05:34:26;148914.31;;;23.93;99.79
6853;BME280;3465;42.144;24.722;2023-06-22T05:36:51;148952.38;;;24.09;98.64
6853;BME280;3465;42.144;24.722;2023-06-22T05:39:17;148982.72;;;24.21;97.42
6853;BME280;3465;42.144;24.722;2023-06-22T05:41:42;149015.66;;;24.34;95.24
6853;BME280;3465;42.144;24.722;2023-06-22T05:44:08;149034.66;;;24.41;92.13
6853;BME280;3465;42.144;24.722;2023-06-22T05:46:34;149041.00;;;24.44;91.00
6853;BME280;3465;42.144;24.722;2023-06-22T05:48:59;149078.97;;;24.59;89.33
6853;BME280;3465;42.144;24.722;2023-06-22T05:51:24;149123.34;;;24.76;88.50
6853;BME280;3465;42.144;24.722;2023-06-22T05:53:50;149161.38;;;24.91;88.42
6853;BME280;3465;42.144;24.722;2023-06-22T05:56:16;149180.38;;;24.99;88.64
6853;BME280;3465;42.144;24.722;2023-06-22T05:58:42;149187.97;;;25.02;87.32
6853;BME280;3465;42.144;24.722;2023-06-22T06:01:08;149212.03;;;25.11;85.70
6853;BME280;3465;42.144;24.722;2023-06-22T06:03:34;149229.78;;;25.18;85.96
6853;BME280;3465;42.144;24.722;2023-06-22T06:05:59;149271.69;;;25.35;84.82
6853;BME280;3465;42.144;24.722;2023-06-22T06:08:27;149298.28;;;25.46;83.67
6853;BME280;3465;42.144;24.722;2023-06-22T06:10:53;149335.03;;;25.60;82.65
6853;BME280;3465;42.144;24.722;2023-06-22T06:13:20;149360.41;;;25.70;81.67
6853;BME280;3465;42.144;24.722;2023-06-22T06:15:45;149361.69;;;25.71;81.66
6853;BME280;3465;42.144;24.722;2023-06-22T06:18:11;149394.59;;;25.84;80.69
6853;BME280;3465;42.144;24.722;2023-06-22T06:20:36;149412.38;;;25.91;79.59
6853;BME280;3465;42.144;24.722;2023-06-22T06:23:02;149432.66;;;25.99;78.44
6853;BME280;3465;42.144;24.722;2023-06-22T06:25:27;149439.06;;;26.01;76.24
6853;BME280;3465;42.144;24.722;2023-06-22T06:27:53;149445.38;;;26.04;75.74
6853;BME280;3465;42.144;24.722;2023-06-22T06:30:20;149489.78;;;26.21;75.66
6853;BME280;3465;42.144;24.722;2023-06-22T06:32:46;149517.66;;;26.32;74.44
6853;BME280;3465;42.144;24.722;2023-06-22T06:35:13;149543.03;;;26.42;73.99
6853;BME280;3465;42.144;24.722;2023-06-22T06:37:42;149583.63;;;26.58;73.42
6853;BME280;3465;42.144;24.722;2023-06-22T06:40:09;149635.69;;;26.79;72.81
6853;BME280;3465;42.144;24.722;2023-06-22T06:42:46;149685.19;;;26.99;71.67
6853;BME280;3465;42.144;24.722;2023-06-22T06:45:16;149730.88;;;27.17;69.60
6853;BME280;3465;42.144;24.722;2023-06-22T06:47:42;149763.91;;;27.30;69.29
6853;BME280;3465;42.144;24.722;2023-06-22T06:50:08;149814.66;;;27.50;69.18
6853;BME280;3465;42.144;24.722;2023-06-22T06:52:33;149893.41;;;27.81;67.30
6853;BME280;3465;42.144;24.722;2023-06-22T06:54:59;149972.13;;;28.12;66.27
6853;BME280;3465;42.144;24.722;2023-06-22T06:57:25;150028.06;;;28.34;66.34
6853;BME280;3465;42.144;24.722;2023-06-22T06:59:55;150089.06;;;28.58;64.03
6853;BME280;3465;42.144;24.722;2023-06-22T07:02:21;150138.56;;;28.78;63.31
6853;BME280;3465;42.144;24.722;2023-06-22T07:04:47;150199.56;;;29.02;62.59
6853;BME280;3465;42.144;24.722;2023-06-22T07:07:13;150246.66;;;29.20;62.45
6853;BME280;3465;42.144;24.722;2023-06-22T07:09:38;150319.09;;;29.49;60.86
6853;BME280;3465;42.144;24.722;2023-06-22T07:12:04;150322.91;;;29.51;60.05
6853;BME280;3465;42.144;24.722;2023-06-22T07:14:30;150464.06;;;30.06;58.73
6853;BME280;3465;42.144;24.722;2023-06-22T07:16:57;150523.91;;;30.30;56.97
6853;BME280;3465;42.144;24.722;2023-06-22T07:19:26;150572.25;;;30.49;55.53
6853;BME280;3465;42.144;24.722;2023-06-22T07:21:52;150640.94;;;30.76;54.31
6853;BME280;3465;42.144;24.722;2023-06-22T07:24:19;150661.34;;;30.84;53.98
6853;BME280;3465;42.144;24.722;2023-06-22T07:26:45;150694.44;;;30.97;53.98
6853;BME280;3465;42.144;24.722;2023-06-22T07:29:11;150758.03;;;31.22;51.95
6853;BME280;3465;42.144;24.722;2023-06-22T07:31:37;150816.66;;;31.45;50.89
6853;BME280;3465;42.144;24.722;2023-06-22T07:34:02;150899.34;;;31.78;49.28
6853;BME280;3465;42.144;24.722;2023-06-22T07:36:29;151070.13;;;32.45;47.97
6853;BME280;3465;42.144;24.722;2023-06-22T07:38:55;151202.63;;;32.97;45.19
6853;BME280;3465;42.144;24.722;2023-06-22T07:41:21;151411.69;;;33.80;43.30
6853;BME280;3465;42.144;24.722;2023-06-22T07:43:46;151643.88;;;34.71;40.30
6853;BME280;3465;42.144;24.722;2023-06-22T07:46:12;151826.41;;;35.43;38.84
6853;BME280;3465;42.144;24.722;2023-06-22T07:48:38;152092.00;;;36.47;37.03
6853;BME280;3465;42.144;24.722;2023-06-22T07:51:04;152199.34;;;36.89;35.62
6853;BME280;3465;42.144;24.722;2023-06-22T07:53:30;152406.41;;;37.71;33.97
6853;BME280;3465;42.144;24.722;2023-06-22T07:55:56;152517.66;;;38.14;33.41
6853;BME280;3465;42.144;24.722;2023-06-22T07:58:21;152622.50;;;38.55;32.19
6853;BME280;3465;42.144;24.722;2023-06-22T08:00:46;152646.84;;;38.65;32.37
6853;BME280;3465;42.144;24.722;2023-06-22T08:03:14;152713.28;;;38.91;31.11
6853;BME280;3465;42.144;24.722;2023-06-22T08:05:39;152764.53;;;39.11;30.91
6853;BME280;3465;42.144;24.722;2023-06-22T08:08:04;152770.91;;;39.14;30.95
6853;BME280;3465;42.144;24.722;2023-06-22T08:10:30;152820.78;;;39.33;30.74
6853;BME280;3465;42.144;24.722;2023-06-22T08:12:55;152805.47;;;39.27;30.97
6853;BME280;3465;42.144;24.722;2023-06-22T08:15:20;152948.78;;;39.83;29.87
6853;BME280;3465;42.144;24.722;2023-06-22T08:17:47;152973.13;;;39.93;30.67
6853;BME280;3465;42.144;24.722;2023-06-22T08:20:12;153161.31;;;40.67;28.92
6853;BME280;3465;42.144;24.722;2023-06-22T08:22:39;153213.84;;;40.87;28.82
6853;BME280;3465;42.144;24.722;2023-06-22T08:25:05;153400.94;;;41.61;27.65
6853;BME280;3465;42.144;24.722;2023-06-22T08:27:31;153379.16;;;41.52;27.47
6853;BME280;3465;42.144;24.722;2023-06-22T08:30:00;153356.06;;;41.43;27.83
6853;BME280;3465;42.144;24.722;2023-06-22T08:32:27;153404.78;;;41.62;27.28
6853;BME280;3465;42.144;24.722;2023-06-22T08:34:54;153384.28;;;41.54;26.88
6853;BME280;3465;42.144;24.722;2023-06-22T08:37:19;153538.03;;;42.14;26.66
6853;BME280;3465;42.144;24.722;2023-06-22T08:39:45;153611.09;;;42.43;25.20
6853;BME280;3465;42.144;24.722;2023-06-22T08:42:12;153663.66;;;42.64;24.79
6853;BME280;3465;42.144;24.722;2023-06-22T08:44:37;153488.06;;;41.95;25.08
6853;BME280;3465;42.144;24.722;2023-06-22T08:47:02;153472.63;;;41.89;25.77
6853;BME280;3465;42.144;24.722;2023-06-22T08:49:28;153752.13;;;42.98;25.07
6853;BME280;3465;42.144;24.722;2023-06-22T08:51:54;153853.44;;;43.38;23.88
6853;BME280;3465;42.144;24.722;2023-06-22T08:54:22;153717.50;;;42.85;24.44
6853;BME280;3465;42.144;24.722;2023-06-22T08:56:47;153689.31;;;42.74;24.58
6853;BME280;3465;42.144;24.722;2023-06-22T08:59:12;153755.97;;;43.00;24.20
6853;BME280;3465;42.144;24.722;2023-06-22T09:01:38;153881.63;;;43.49;23.54
6853;BME280;3465;42.144;24.722;2023-06-22T09:04:03;153830.38;;;43.29;23.88
6853;BME280;3465;42.144;24.722;2023-06-22T09:06:31;153994.59;;;43.93;23.21
6853;BME280;3465;42.144;24.722;2023-06-22T09:08:56;154086.97;;;44.29;22.07
6853;BME280;3465;42.144;24.722;2023-06-22T09:11:24;154190.94;;;44.70;22.77
6853;BME280;3465;42.144;24.722;2023-06-22T09:13:50;154142.16;;;44.51;22.81
6853;BME280;3465;42.144;24.722;2023-06-22T09:16:17;154122.91;;;44.43;23.16
6853;BME280;3465;42.144;24.722;2023-06-22T09:18:47;154135.75;;;44.48;22.57
6853;BME280;3465;42.144;24.722;2023-06-22T09:21:12;154283.38;;;45.06;22.04
6853;BME280;3465;42.144;24.722;2023-06-22T09:23:38;154369.38;;;45.40;21.52
6853;BME280;3465;42.144;24.722;2023-06-22T09:26:03;154365.50;;;45.38;21.25
6853;BME280;3465;42.144;24.722;2023-06-22T09:28:29;154378.34;;;45.43;21.33
6853;BME280;3465;42.144;24.722;2023-06-22T09:30:55;154402.78;;;45.53;21.16
6853;BME280;3465;42.144;24.722;2023-06-22T09:33:23;154256.38;;;44.95;20.87
6853;BME280;3465;42.144;24.722;2023-06-22T09:35:49;154148.53;;;44.53;21.69
6853;BME280;3465;42.144;24.722;2023-06-22T09:38:16;154081.81;;;44.27;21.41
6853;BME280;3465;42.144;24.722;2023-06-22T09:40:41;153941.97;;;43.72;21.59
6853;BME280;3465;42.144;24.722;2023-06-22T09:43:06;153965.03;;;43.82;21.51
6853;BME280;3465;42.144;24.722;2023-06-22T09:45:32;154053.59;;;44.16;21.66
6853;BME280;3465;42.144;24.722;2023-06-22T09:47:57;154039.47;;;44.11;21.70
6853;BME280;3465;42.144;24.722;2023-06-22T09:50:23;153466.25;;;41.86;23.61
6853;BME280;3465;42.144;24.722;2023-06-22T09:52:48;153557.22;;;42.22;23.75
6853;BME280;3465;42.144;24.722;2023-06-22T09:55:19;153614.94;;;42.44;23.05
6853;BME280;3465;42.144;24.722;2023-06-22T09:57:45;153553.38;;;42.20;23.97
6853;BME280;3465;42.144;24.722;2023-06-22T10:00:11;153604.72;;;42.40;23.61
6853;BME280;3465;42.144;24.722;2023-06-22T10:02:39;153840.59;;;43.33;22.66
6853;BME280;3465;42.144;24.722;2023-06-22T10:05:04;154030.50;;;44.07;21.41
6853;BME280;3465;42.144;24.722;2023-06-22T10:07:30;154086.97;;;44.29;22.38
6853;BME280;3465;42.144;24.722;2023-06-22T10:09:55;154230.69;;;44.85;21.40
6853;BME280;3465;42.144;24.722;2023-06-22T10:12:20;154154.97;;;44.56;21.79
6853;BME280;3465;42.144;24.722;2023-06-22T10:14:46;153947.06;;;43.74;21.81
6853;BME280;3465;42.144;24.722;2023-06-22T10:17:11;153794.50;;;43.15;21.71
6853;BME280;3465;42.144;24.722;2023-06-22T10:19:37;153856.03;;;43.39;22.61
6853;BME280;3465;42.144;24.722;2023-06-22T10:22:04;154147.28;;;44.53;21.43
6853;BME280;3465;42.144;24.722;2023-06-22T10:24:30;154256.38;;;44.95;20.79
6853;BME280;3465;42.144;24.722;2023-06-22T10:26:55;154192.22;;;44.70;20.69
6853;BME280;3465;42.144;24.722;2023-06-22T10:29:21;154171.66;;;44.62;21.24
6853;BME280;3465;42.144;24.722;2023-06-22T10:31:46;154147.28;;;44.53;21.10
6853;BME280;3465;42.144;24.722;2023-06-22T10:34:12;153840.59;;;43.33;21.34
6853;BME280;3465;42.144;24.722;2023-06-22T10:36:38;153899.66;;;43.56;21.77
6853;BME280;3465;42.144;24.722;2023-06-22T10:39:04;154058.69;;;44.18;20.95
6853;BME280;3465;42.144;24.722;2023-06-22T10:41:29;154086.97;;;44.29;21.26
6853;BME280;3465;42.144;24.722;2023-06-22T10:43:56;154193.47;;;44.71;20.65
6853;BME280;3465;42.144;24.722;2023-06-22T10:46:21;154283.38;;;45.06;20.89
6853;BME280;3465;42.144;24.722;2023-06-22T10:48:46;154169.06;;;44.61;21.25
6853;BME280;3465;42.144;24.722;2023-06-22T10:51:12;154129.31;;;44.46;21.42
6853;BME280;3465;42.144;24.722;2023-06-22T10:53:37;154102.38;;;44.35;21.01
6853;BME280;3465;42.144;24.722;2023-06-22T10:56:03;153752.13;;;42.98;21.78
6853;BME280;3465;42.144;24.722;2023-06-22T10:58:28;153856.03;;;43.39;22.00
6853;BME280;3465;42.144;24.722;2023-06-22T11:00:54;153484.22;;;41.93;22.69
6853;BME280;3465;42.144;24.722;2023-06-22T11:03:19;153271.47;;;41.10;23.21
6853;BME280;3465;42.144;24.722;2023-06-22T11:05:45;153331.69;;;41.34;23.15
6853;BME280;3465;42.144;24.722;2023-06-22T11:08:13;153210.00;;;40.86;24.55
6853;BME280;3465;42.144;24.722;2023-06-22T11:10:38;153014.09;;;40.09;24.55
6853;BME280;3465;42.144;24.722;2023-06-22T11:13:03;153024.31;;;40.13;24.56
6853;BME280;3465;42.144;24.722;2023-06-22T11:15:30;152898.88;;;39.64;25.80
6853;BME280;3465;42.144;24.722;2023-06-22T11:17:55;153125.50;;;40.53;23.92
6853;BME280;3465;42.144;24.722;2023-06-22T11:20:21;153495.72;;;41.98;23.87
6853;BME280;3465;42.144;24.722;2023-06-22T11:22:46;153517.53;;;42.06;22.55
6853;BME280;3465;42.144;24.722;2023-06-22T11:25:12;153179.31;;;40.74;23.62
6853;BME280;3465;42.144;24.722;2023-06-22T11:27:38;153222.81;;;40.91;24.13
6853;BME280;3465;42.144;24.722;2023-06-22T11:30:04;153144.69;;;40.60;24.25
6853;BME280;3465;42.144;24.722;2023-06-22T11:32:29;152941.13;;;39.80;24.47
6853;BME280;3465;42.144;24.722;2023-06-22T11:34:55;152828.47;;;39.36;25.45
6853;BME280;3465;42.144;24.722;2023-06-22T11:37:20;152557.31;;;38.30;26.85
6853;BME280;3465;42.144;24.722;2023-06-22T11:39:45;152506.09;;;38.10;27.13
6853;BME280;3465;42.144;24.722;2023-06-22T11:42:11;152590.50;;;38.43;27.40
6853;BME280;3465;42.144;24.722;2023-06-22T11:44:36;152590.50;;;38.43;27.77
6853;BME280;3465;42.144;24.722;2023-06-22T11:47:02;152676.22;;;38.77;27.06
6853;BME280;3465;42.144;24.722;2023-06-22T11:49:30;152697.97;;;38.85;26.91
6853;BME280;3465;42.144;24.722;2023-06-22T11:51:55;152726.09;;;38.96;27.08
6853;BME280;3465;42.144;24.722;2023-06-22T11:54:21;152701.81;;;38.87;27.72
6853;BME280;3465;42.144;24.722;2023-06-22T11:56:46;152763.22;;;39.11;27.34
6853;BME280;3465;42.144;24.722;2023-06-22T11:59:12;152802.91;;;39.26;27.69
6853;BME280;3465;42.144;24.722;2023-06-22T12:01:37;152607.13;;;38.49;27.76
6853;BME280;3465;42.144;24.722;2023-06-22T12:04:02;152455.00;;;37.90;27.79
6853;BME280;3465;42.144;24.722;2023-06-22T12:06:32;152411.53;;;37.73;28.55
6853;BME280;3465;42.144;24.722;2023-06-22T12:08:58;152558.56;;;38.30;28.08
6853;BME280;3465;42.144;24.722;2023-06-22T12:11:23;152626.38;;;38.57;28.09
6853;BME280;3465;42.144;24.722;2023-06-22T12:13:48;152705.63;;;38.88;26.80
6853;BME280;3465;42.144;24.722;2023-06-22T12:16:14;152891.22;;;39.61;26.97
6853;BME280;3465;42.144;24.722;2023-06-22T12:18:39;152636.59;;;38.61;27.24
6853;BME280;3465;42.144;24.722;2023-06-22T12:21:04;152632.75;;;38.59;27.51
6853;BME280;3465;42.144;24.722;2023-06-22T12:23:30;152553.44;;;38.28;28.19
6853;BME280;3465;42.144;24.722;2023-06-22T12:25:55;152420.47;;;37.76;28.46
6853;BME280;3465;42.144;24.722;2023-06-22T12:28:21;152263.19;;;37.14;29.01
6853;BME280;3465;42.144;24.722;2023-06-22T12:30:46;152107.38;;;36.53;30.14
6853;BME280;3465;42.144;24.722;2023-06-22T12:33:11;152023.03;;;36.20;30.62
6853;BME280;3465;42.144;24.722;2023-06-22T12:35:37;151933.66;;;35.85;32.17
6853;BME280;3465;42.144;24.722;2023-06-22T12:38:02;151980.88;;;36.03;30.15
6853;BME280;3465;42.144;24.722;2023-06-22T12:40:28;151969.41;;;35.99;30.72
6853;BME280;3465;42.144;24.722;2023-06-22T12:42:53;151984.75;;;36.05;30.96
6853;BME280;3465;42.144;24.722;2023-06-22T12:45:19;152116.28;;;36.57;30.70
6853;BME280;3465;42.144;24.722;2023-06-22T12:47:46;152120.09;;;36.58;30.50
6853;BME280;3465;42.144;24.722;2023-06-22T12:50:12;152067.75;;;36.38;30.29
6853;BME280;3465;42.144;24.722;2023-06-22T12:52:39;152039.63;;;36.27;31.51
6853;BME280;3465;42.144;24.722;2023-06-22T12:55:06;152079.22;;;36.42;30.91
6853;BME280;3465;42.144;24.722;2023-06-22T12:57:32;152084.34;;;36.44;31.73
6853;BME280;3465;42.144;24.722;2023-06-22T12:59:57;151994.94;;;36.09;32.21
6853;BME280;3465;42.144;24.722;2023-06-22T13:02:23;151957.91;;;35.94;31.39
6853;BME280;3465;42.144;24.722;2023-06-22T13:04:49;151970.69;;;35.99;31.42